D/T METAR WX W/DIR W/SPE G/SPE TEMP DEWP
6/06/20 12:50 EGPH 061150Z 09012KT 9999 SCT044 15/07 Q0997 E (90°) 13.8mph 15°C 7°C
6/06/20 12:20 EGPH 061120Z 06010KT 040V100 9999 SCT041 15/08 Q0996 ENE (60°) 11.5mph 15°C 8°C
6/06/20 11:50 EGPH 061050Z 06011KT 9999 BKN029 BKN047 14/07 Q0996 ENE (60°) 12.7mph 14°C 7°C
6/06/20 11:20 EGPH 061020Z 06009KT 9999 BKN031 13/08 Q0996 ENE (60°) 10.4mph 13°C 8°C
6/06/20 10:20 EGPH 060920Z 06012KT 9999 BKN036 12/07 Q0995 ENE (60°) 13.8mph 12°C 7°C
6/06/20 09:50 EGPH 060850Z 02010KT 340V040 9999 BKN038 12/05 Q0994 NNE (20°) 11.5mph 12°C 5°C
6/06/20 09:20 EGPH 060820Z 01008KT 280V050 9999 FEW035 12/05 Q0994 N (10°) 9.2mph 12°C 5°C
6/06/20 08:50 EGPH 060750Z 36007KT 330V040 9999 SCT036 11/05 Q0993 N (360°) 8.1mph 11°C 5°C
6/06/20 08:20 EGPH 060720Z 02009KT 350V050 9999 BKN036 11/05 Q0993 NNE (20°) 10.4mph 11°C 5°C
6/06/20 07:50 EGPH 060650Z 01007KT 320V040 9999 BKN032 11/05 Q0993 N (10°) 8.1mph 11°C 5°C
6/06/20 07:20 EGPH 060620Z 35005KT 310V040 9999 BKN033 11/06 Q0992 N (350°) 5.8mph 11°C 6°C
6/06/20 06:50 EGPH 060550Z 34005KT 290V020 9999 FEW026 OVC032 11/06 Q0992 NNW (340°) 5.8mph 11°C 6°C
6/06/20 06:20 EGPH 060520Z VRB04KT 9999 BKN033 10/06 Q0991 N (0°) 4.6mph 10°C 6°C
6/06/20 05:50 EGPH 060450Z 31004KT 240V020 9999 BKN038 10/06 Q0991 NW (310°) 4.6mph 10°C 6°C
6/06/20 05:20 EGPH 060420Z 29004KT 240V030 9999 BKN039 09/07 Q0990 WNW (290°) 4.6mph 9°C 7°C
6/06/20 04:50 EGPH 060350Z 27005KT 9999 BKN036 09/07 Q0990 W (270°) 5.8mph 9°C 7°C
6/06/20 04:20 EGPH 060320Z 27006KT 240V310 9999 BKN035 09/07 Q0990 W (270°) 6.9mph 9°C 7°C
6/06/20 03:50 EGPH 060250Z 28007KT 9999 BKN040 09/07 Q0989 W (280°) 8.1mph 9°C 7°C
6/06/20 03:20 EGPH 060220Z 27007KT 9999 BKN040 09/07 Q0989 W (270°) 8.1mph 9°C 7°C
6/06/20 02:50 EGPH 060150Z 27008KT 9999 -RA SCT032 BKN048 09/07 Q0989 -RA W (270°) 9.2mph 9°C 7°C
6/06/20 02:20 EGPH 060120Z 27006KT 9999 -RA FEW025 BKN034 08/07 Q0989 -RA W (270°) 6.9mph 8°C 7°C
6/06/20 01:50 EGPH 060050Z 27007KT 250V310 9999 -RA SCT024 BKN034 08/06 Q0989 -RA W (270°) 8.1mph 8°C 6°C
6/06/20 01:20 EGPH 060020Z 28008KT 250V350 8000 -RA OVC027 08/06 Q0989 -RA W (280°) 9.2mph 8°C 6°C
6/06/20 00:50 EGPH 052350Z 25011KT 9999 -RA OVC029 08/06 Q0988 -RA WSW (250°) 12.7mph 8°C 6°C
6/06/20 00:20 EGPH 052320Z 27010KT 9999 OVC034 08/05 Q0989 W (270°) 11.5mph 8°C 5°C
5/06/20 23:50 EGPH 052250Z 26011KT 9999 OVC038 08/06 Q0989 W (260°) 12.7mph 8°C 6°C
5/06/20 23:20 EGPH 052220Z 26010KT 9999 -RA FEW008 OVC047 08/06 Q0989 -RA W (260°) 11.5mph 8°C 6°C
5/06/20 22:50 EGPH 052150Z 27012KT 9999 -RA FEW018 08/06 Q0989 -RA W (270°) 13.8mph 8°C 6°C
5/06/20 22:20 EGPH 052120Z 26011KT 9999 -RA BKN045 07/06 Q0989 -RA W (260°) 12.7mph 7°C 6°C
5/06/20 21:50 EGPH 052050Z 26012KT 9999 -RA BKN033 07/05 Q0989 -RA W (260°) 13.8mph 7°C 5°C
5/06/20 21:20 EGPH 052020Z 26012KT 9999 -RA OVC030 07/05 Q0989 -RA W (260°) 13.8mph 7°C 5°C
5/06/20 20:50 EGPH 051950Z 26013KT 9999 -RA OVC030 08/05 Q0990 -RA W (260°) 15.0mph 8°C 5°C
5/06/20 20:20 EGPH 051920Z 27011KT 9999 -RA BKN031 08/04 Q0990 -RA W (270°) 12.7mph 8°C 4°C
5/06/20 19:50 EGPH 051850Z 27011KT 9999 -RA BKN034 OVC049 08/04 Q0990 -RA W (270°) 12.7mph 8°C 4°C
5/06/20 19:20 EGPH 051820Z 28012KT 240V320 9999 -RA BKN036 09/03 Q0990 -RA W (280°) 13.8mph 9°C 3°C
5/06/20 18:50 EGPH 051750Z 29012KT 260V340 9999 -RA FEW015 BKN039 10/03 Q0990 -RA WNW (290°) 13.8mph 10°C 3°C
5/06/20 18:20 EGPH 051720Z 28012KT 250V320 9999 BKN036 12/02 Q0990 W (280°) 13.8mph 12°C 2°C
5/06/20 17:50 EGPH 051650Z 28012KT 250V330 9999 FEW042 12/03 Q0990 W (280°) 13.8mph 12°C 3°C
5/06/20 17:20 EGPH 051620Z 28011KT 240V310 9999 FEW012 12/04 Q0991 W (280°) 12.7mph 12°C 4°C
5/06/20 16:50 EGPH 051550Z 29011KT 260V340 9999 -RA FEW012 BKN047 12/03 Q0991 -RA WNW (290°) 12.7mph 12°C 3°C
5/06/20 15:50 EGPH 051450Z 27012KT 240V320 9999 FEW025 SCT049 13/04 Q0991 W (270°) 13.8mph 13°C 4°C
5/06/20 15:20 EGPH 051420Z 28012KT 240V330 9999 BKN046 13/03 Q0991 W (280°) 13.8mph 13°C 3°C
5/06/20 14:50 EGPH 051350Z 29008KT 260V330 9999 FEW010 SCT041 12/05 Q0992 WNW (290°) 9.2mph 12°C 5°C
5/06/20 14:20 EGPH 051320Z 32007KT 250V010 7000 -RA FEW015 BKN032 10/05 Q0992 -RA NW (320°) 8.1mph 10°C 5°C
5/06/20 13:20 EGPH 051220Z 28010KT 250V330 9999 FEW008 SCT030 13/04 Q0993 W (280°) 11.5mph 13°C 4°C
5/06/20 12:50 EGPH 051150Z 28009KT 240V350 9999 -RA SCT026 13/03 Q0993 -RA W (280°) 10.4mph 13°C 3°C
5/06/20 12:20 EGPH 051120Z 28011KT 250V320 9999 SCT039 12/03 Q0993 W (280°) 12.7mph 12°C 3°C
5/06/20 11:50 EGPH 051050Z 29011KT 260V320 9999 FEW026 SCT039 11/03 Q0994 WNW (290°) 12.7mph 11°C 3°C
5/06/20 11:20 EGPH 051020Z 29008KT 260V350 9999 SCT032 11/03 Q0994 WNW (290°) 9.2mph 11°C 3°C
5/06/20 10:50 EGPH 050950Z 29008KT 250V330 9999 SCT032 12/04 Q0994 WNW (290°) 9.2mph 12°C 4°C
5/06/20 10:20 EGPH 050920Z 30007KT 250V350 9999 SCT030 11/04 Q0995 WNW (300°) 8.1mph 11°C 4°C
5/06/20 09:20 EGPH 050820Z 29008KT 260V340 9999 SCT029 10/04 Q0995 WNW (290°) 9.2mph 10°C 4°C
5/06/20 08:50 EGPH 050750Z 28007KT 230V310 9999 BKN030 09/04 Q0995 W (280°) 8.1mph 9°C 4°C
5/06/20 08:20 EGPH 050720Z 28007KT 240V320 9999 SCT028 08/04 Q0995 W (280°) 8.1mph 8°C 4°C
5/06/20 07:50 EGPH 050650Z 27008KT 240V310 CAVOK 08/04 Q0995 W (270°) 9.2mph 8°C 4°C
5/06/20 07:20 EGPH 050620Z 27007KT 240V300 CAVOK 08/04 Q0995 W (270°) 8.1mph 8°C 4°C
5/06/20 06:50 EGPH 050550Z 26005KT 9999 FEW036 07/05 Q0996 W (260°) 5.8mph 7°C 5°C
5/06/20 06:20 EGPH 050520Z 25006KT 9999 SCT036 07/05 Q0996 WSW (250°) 6.9mph 7°C 5°C
5/06/20 05:50 EGPH 050450Z 24004KT 9999 SCT041 06/05 Q0996 WSW (240°) 4.6mph 6°C 5°C
5/06/20 05:20 EGPH 050420Z 22003KT 9999 FEW041 06/05 Q0996 SW (220°) 3.5mph 6°C 5°C
5/06/20 04:50 EGPH 050350Z 26005KT 240V300 9999 FEW020 07/04 Q0996 W (260°) 5.8mph 7°C 4°C
5/06/20 04:20 EGPH 050320Z VRB03KT 9999 FEW020 07/04 Q0996 N (0°) 3.5mph 7°C 4°C
5/06/20 03:50 EGPH 050250Z 32004KT 260V020 9999 FEW020 07/04 Q0997 NW (320°) 4.6mph 7°C 4°C
5/06/20 03:20 EGPH 050220Z VRB02KT 9999 FEW020 07/05 Q0997 N (0°) 2.3mph 7°C 5°C
5/06/20 02:50 EGPH 050150Z VRB03KT 9999 FEW020 07/06 Q0997 N (0°) 3.5mph 7°C 6°C
5/06/20 02:20 EGPH 050120Z VRB02KT CAVOK 07/07 Q0997 N (0°) 2.3mph 7°C 7°C
5/06/20 01:50 EGPH 050050Z VRB03KT 9999 SCT035 07/07 Q0998 N (0°) 3.5mph 7°C 7°C
5/06/20 01:20 EGPH 050020Z VRB02KT 9999 -RA BKN031 08/07 Q0998 -RA N (0°) 2.3mph 8°C 7°C
5/06/20 00:50 EGPH 042350Z VRB03KT 9000 -RA SCT018 BKN033 08/07 Q0998 -RA N (0°) 3.5mph 8°C 7°C
5/06/20 00:20 EGPH 042320Z 26003KT 9999 BKN046 08/07 Q0998 W (260°) 3.5mph 8°C 7°C
4/06/20 23:50 EGPH 042250Z 26002KT CAVOK 08/07 Q0999 W (260°) 2.3mph 8°C 7°C
4/06/20 23:20 EGPH 042220Z 27003KT CAVOK 08/07 Q0999 W (270°) 3.5mph 8°C 7°C
4/06/20 22:50 EGPH 042150Z VRB02KT CAVOK 08/06 Q0999 N (0°) 2.3mph 8°C 6°C
4/06/20 22:20 EGPH 042120Z 17003KT 9999 FEW010 SCT045 08/07 Q0999 S (170°) 3.5mph 8°C 7°C
4/06/20 21:20 EGPH 042020Z 06007KT 9999 -RA SCT012 OVC019 08/07 Q0999 -RA ENE (60°) 8.1mph 8°C 7°C
4/06/20 20:50 EGPH 041950Z 07010KT 9999 -RA OVC012 08/07 Q0999 -RA ENE (70°) 11.5mph 8°C 7°C
4/06/20 20:20 EGPH 041920Z 07011KT 9999 -RA BKN012 OVC024 09/07 Q0999 -RA ENE (70°) 12.7mph 9°C 7°C
4/06/20 19:50 EGPH 041850Z 06013KT 9999 BKN015 OVC027 09/07 Q0999 ENE (60°) 15.0mph 9°C 7°C
4/06/20 19:20 EGPH 041820Z 06013KT 9999 BKN020 09/06 Q0999 ENE (60°) 15.0mph 9°C 6°C
4/06/20 18:50 EGPH 041750Z 06012KT 9999 BKN023 10/07 Q0999 ENE (60°) 13.8mph 10°C 7°C
4/06/20 18:20 EGPH 041720Z 06010KT 9999 SCT034 10/07 Q0999 ENE (60°) 11.5mph 10°C 7°C
4/06/20 17:50 EGPH 041650Z 06012KT 9999 -RA FEW019 BKN034 10/08 Q0999 -RA ENE (60°) 13.8mph 10°C 8°C
4/06/20 17:20 EGPH 041620Z 04012KT 9999 BKN014 BKN047 11/08 Q0999 NE (40°) 13.8mph 11°C 8°C
4/06/20 16:50 EGPH 041550Z 07005KT 9999 -RA FEW011 BKN043 12/09 Q0999 -RA ENE (70°) 5.8mph 12°C 9°C
4/06/20 16:20 EGPH 041520Z 03004KT 9000 -RA FEW019 OVC046 12/09 Q0999 -RA NNE (30°) 4.6mph 12°C 9°C
4/06/20 15:50 EGPH 041450Z 03005KT 9999 -RA BKN042 12/07 Q0999 -RA NNE (30°) 5.8mph 12°C 7°C
4/06/20 15:20 EGPH 041420Z 04008KT 350V060 9999 BKN049 13/08 Q1000 NE (40°) 9.2mph 13°C 8°C
4/06/20 14:50 EGPH 041350Z 05008KT 020V080 9999 FEW026 14/08 Q1000 NE (50°) 9.2mph 14°C 8°C
4/06/20 14:20 EGPH 041320Z 06006KT 030V110 9999 SCT017 BKN035 14/07 Q1000 ENE (60°) 6.9mph 14°C 7°C
4/06/20 13:50 EGPH 041250Z 08006KT 040V150 9999 BKN023 14/07 Q1001 E (80°) 6.9mph 14°C 7°C
4/06/20 13:20 EGPH 041220Z VRB03KT 9999 SCT019 14/08 Q1001 N (0°) 3.5mph 14°C 8°C
4/06/20 12:50 EGPH 041150Z VRB03KT 9999 SCT018 BKN034 12/07 Q1002 N (0°) 3.5mph 12°C 7°C
4/06/20 12:20 EGPH 041120Z 19004KT 140V230 9999 SCT022 11/07 Q1002 S (190°) 4.6mph 11°C 7°C
4/06/20 11:50 EGPH 041050Z 24004KT 190V350 9999 FEW012 BKN023 10/08 Q1002 WSW (240°) 4.6mph 10°C 8°C
4/06/20 11:20 EGPH 041020Z 29004KT 240V360 9999 -RA SCT012 BKN024 10/08 Q1003 -RA WNW (290°) 4.6mph 10°C 8°C
4/06/20 10:50 EGPH 040950Z 25006KT 220V290 9999 SCT010 BKN023 OVC042 10/08 Q1003 WSW (250°) 6.9mph 10°C 8°C